Cook, Minnesota
Current Conditions -  °F | °C
As of 8:35 PM on Sunday 21 Dec 2014 (Local Time) from KCQM Reporting Station
Overcast Overcast  
Wind Chill: 32°   Ceiling: 900
Heat Index: 32°   Visibility: 7mi
Dew Point: 30°   Wind: 3mph
Humidity: 93%   Direction: 120°ESE
Pressure: 29.7"   Gusts: NA
Location:  47.85°N, 92.69°W
Report Text: KCQM 220235Z AUTO 12003KT 7SM OVC009 00/M01 A2970 RMK AO2
Loading
Personal Weather Stations






























Interactive Weather Map New forecast layout! Learn more

10-Day Weather Forecast

Advertisements
Track Severe Weather on mobile